Time;durP1;ratioP1;P1;durP2;ratioP2;P2;SDS_P1;SDS_P2;PMS_P1;PMS_P2;Temp;Humidity;BMP_temperature;BMP_pressure;BME280_temperature;BME280_humidity;BME280_pressure;Samples;Min_cycle;Max_cycle;Signal;HPM_P1;HPM_P2
2020/12/05 00:01:59;;;;;;;26.17;13.98;;;;;;;;;;5093147;28;20478;-72
2020/12/05 00:04:24;;;;;;;26.17;13.50;;;;;;;;;;5091819;28;20032;-72
2020/12/05 00:06:50;;;;;;;26.23;13.13;;;;;;;;;;5093200;28;20040;-72
2020/12/05 00:09:15;;;;;;;23.33;13.77;;;;;;;;;;5093236;28;20040;-72
2020/12/05 00:11:40;;;;;;;23.02;13.05;;;;;;;;;;5092763;28;20028;-72
2020/12/05 00:14:06;;;;;;;22.05;12.50;;;;;;;;;;5091752;28;20489;-73
2020/12/05 00:16:31;;;;;;;20.70;12.35;;;;;;;;;;5093361;28;20036;-73
2020/12/05 00:18:56;;;;;;;22.85;12.45;;;;;;;;;;5092965;28;20123;-72
2020/12/05 00:21:24;;;;;;;24.75;13.43;;;;;;;;;;5096788;28;20046;-72
2020/12/05 00:23:50;;;;;;;28.17;13.00;;;;;;;;;;5097058;28;20043;-73
2020/12/05 00:26:20;;;;;;;21.40;13.05;;;;;;;;;;5097184;28;20036;-73
2020/12/05 00:28:46;;;;;;;23.23;13.23;;;;;;;;;;5097109;28;20075;-73
2020/12/05 00:31:12;;;;;;;25.70;12.90;;;;;;;;;;5096919;28;20161;-73
2020/12/05 00:33:38;;;;;;;22.40;11.75;;;;;;;;;;5096875;28;20056;-72
2020/12/05 00:36:04;;;;;;;22.10;11.57;;;;;;;;;;5096879;28;20111;-72
2020/12/05 00:38:29;;;;;;;22.40;12.15;;;;;;;;;;5096892;28;20028;-73
2020/12/05 00:40:55;;;;;;;25.58;13.38;;;;;;;;;;5096799;28;20676;-73
2020/12/05 00:43:21;;;;;;;21.60;11.68;;;;;;;;;;5096705;28;20035;-72
2020/12/05 00:45:47;;;;;;;23.23;11.63;;;;;;;;;;5096729;28;20028;-73
2020/12/05 00:48:12;;;;;;;20.77;11.38;;;;;;;;;;5096595;28;20046;-73
2020/12/05 00:50:37;;;;;;;20.83;11.95;;;;;;;;;;5096436;28;20042;-72
2020/12/05 00:53:03;;;;;;;19.38;11.73;;;;;;;;;;5096577;28;20031;-73
2020/12/05 00:55:28;;;;;;;19.48;11.48;;;;;;;;;;5095305;28;20046;-73
2020/12/05 00:57:54;;;;;;;22.60;11.77;;;;;;;;;;5096342;28;20110;-73
2020/12/05 01:00:19;;;;;;;20.60;11.80;;;;;;;;;;5096195;28;20032;-72
2020/12/05 01:02:48;;;;;;;17.05;10.60;;;;;;;;;;5096219;28;20631;-73
2020/12/05 01:05:13;;;;;;;17.58;11.13;;;;;;;;;;5096013;28;20067;-72
2020/12/05 01:07:39;;;;;;;20.10;12.05;;;;;;;;;;5096216;28;20109;-73
2020/12/05 01:10:05;;;;;;;20.92;12.63;;;;;;;;;;5094952;28;20385;-73
2020/12/05 01:12:31;;;;;;;22.98;12.77;;;;;;;;;;5096316;28;20028;-73
2020/12/05 01:15:01;;;;;;;21.20;11.75;;;;;;;;;;5096042;28;20028;-73
2020/12/05 01:17:26;;;;;;;24.30;13.10;;;;;;;;;;5095899;28;20032;-72
2020/12/05 01:19:52;;;;;;;23.92;13.43;;;;;;;;;;5095874;28;20512;-72
2020/12/05 01:22:21;;;;;;;30.80;17.08;;;;;;;;;;5095928;28;20028;-73
2020/12/05 01:24:46;;;;;;;26.67;13.80;;;;;;;;;;5095852;28;20101;-72
2020/12/05 01:27:12;;;;;;;24.23;12.98;;;;;;;;;;5095769;28;20040;-73
2020/12/05 01:29:37;;;;;;;27.80;14.27;;;;;;;;;;5095568;28;20081;-73
2020/12/05 01:32:02;;;;;;;23.70;13.02;;;;;;;;;;5095622;28;20032;-72
2020/12/05 01:34:28;;;;;;;22.05;12.98;;;;;;;;;;5094206;28;20347;-72
2020/12/05 01:36:53;;;;;;;21.52;11.77;;;;;;;;;;5095615;28;20490;-72
2020/12/05 01:39:18;;;;;;;21.48;11.85;;;;;;;;;;5095691;28;20032;-73
2020/12/05 01:41:44;;;;;;;22.23;12.50;;;;;;;;;;5095622;28;20036;-73
2020/12/05 01:44:09;;;;;;;20.67;12.50;;;;;;;;;;5095517;28;20043;-72
2020/12/05 01:46:39;;;;;;;24.08;13.45;;;;;;;;;;5095578;28;20474;-73
2020/12/05 01:49:11;;;;;;;24.65;12.57;;;;;;;;;;5095322;28;20389;-73
2020/12/05 01:51:37;;;;;;;22.35;12.95;;;;;;;;;;5095222;28;20126;-72
2020/12/05 01:54:04;;;;;;;21.10;11.68;;;;;;;;;;5095430;28;20103;-72
2020/12/05 01:56:29;;;;;;;20.02;11.20;;;;;;;;;;5095458;28;20085;-73
2020/12/05 01:58:55;;;;;;;19.20;11.70;;;;;;;;;;5095070;28;20040;-72
2020/12/05 02:01:22;;;;;;;18.75;10.55;;;;;;;;;;5095193;28;20378;-72
2020/12/05 02:03:50;;;;;;;21.60;11.75;;;;;;;;;;5095219;28;20035;-73
2020/12/05 02:06:47;;;;;;;23.08;11.80;;;;;;;;;;5094899;28;20043;-73
2020/12/05 02:09:25;;;;;;;17.15;10.32;;;;;;;;;;5090729;28;20626;-72
2020/12/05 02:12:30;;;;;;;23.98;10.75;;;;;;;;;;5095008;28;20050;-73
2020/12/05 02:15:01;;;;;;;15.90;9.77;;;;;;;;;;5094980;28;20123;-73
2020/12/05 02:17:28;;;;;;;17.83;10.63;;;;;;;;;;5094958;28;20059;-73
2020/12/05 02:19:55;;;;;;;22.85;12.00;;;;;;;;;;5094694;28;20067;-72
2020/12/05 02:22:35;;;;;;;23.95;12.18;;;;;;;;;;5094728;28;20043;-72
2020/12/05 02:25:01;;;;;;;26.42;12.88;;;;;;;;;;5094698;28;20036;-73
2020/12/05 02:27:30;;;;;;;27.92;14.35;;;;;;;;;;5094644;28;20028;-73
2020/12/05 02:29:55;;;;;;;23.55;14.10;;;;;;;;;;5094622;28;20225;-72
2020/12/05 02:32:20;;;;;;;28.42;15.68;;;;;;;;;;5094742;28;20471;-73
2020/12/05 02:34:46;;;;;;;24.75;14.63;;;;;;;;;;5094227;28;20051;-72
2020/12/05 02:37:13;;;;;;;25.75;14.10;;;;;;;;;;5094561;28;20077;-72
2020/12/05 02:39:43;;;;;;;24.38;14.18;;;;;;;;;;5094609;28;20382;-72
2020/12/05 02:42:13;;;;;;;26.60;13.73;;;;;;;;;;5093808;28;20028;-72
2020/12/05 02:44:51;;;;;;;22.10;12.70;;;;;;;;;;5094429;28;20397;-73
2020/12/05 02:47:18;;;;;;;24.52;13.98;;;;;;;;;;5094373;28;20035;-73
2020/12/05 02:49:44;;;;;;;24.75;14.05;;;;;;;;;;5092842;28;20028;-72
2020/12/05 02:52:09;;;;;;;31.83;13.93;;;;;;;;;;5094230;28;20032;-73
2020/12/05 02:54:35;;;;;;;27.85;15.32;;;;;;;;;;5094325;28;20131;-73
2020/12/05 02:57:01;;;;;;;31.30;14.90;;;;;;;;;;5094219;28;20039;-73
2020/12/05 02:59:27;;;;;;;24.58;13.77;;;;;;;;;;5093832;28;20131;-72
2020/12/05 03:01:54;;;;;;;29.05;14.63;;;;;;;;;;5094041;28;20043;-73
2020/12/05 03:04:19;;;;;;;24.08;13.82;;;;;;;;;;5093999;28;20539;-73
2020/12/05 03:06:45;;;;;;;25.17;13.18;;;;;;;;;;5093904;28;20032;-72
2020/12/05 03:09:10;;;;;;;21.42;13.20;;;;;;;;;;5094069;28;20032;-72
2020/12/05 03:11:35;;;;;;;22.02;12.50;;;;;;;;;;5094091;28;20032;-73
2020/12/05 03:14:01;;;;;;;23.90;13.77;;;;;;;;;;5093850;28;20393;-73
2020/12/05 03:16:26;;;;;;;26.23;12.32;;;;;;;;;;5093853;28;20039;-73
2020/12/05 03:18:51;;;;;;;23.83;12.77;;;;;;;;;;5093967;28;20036;-73
2020/12/05 03:21:17;;;;;;;19.02;10.73;;;;;;;;;;5093560;28;20173;-72
2020/12/05 03:23:45;;;;;;;21.55;12.05;;;;;;;;;;5093754;28;20524;-73
2020/12/05 03:26:14;;;;;;;20.85;12.35;;;;;;;;;;5093820;28;20027;-73
2020/12/05 03:28:40;;;;;;;21.45;11.75;;;;;;;;;;5093665;28;20050;-73
2020/12/05 03:31:06;;;;;;;21.70;12.23;;;;;;;;;;5093588;28;20032;-73
2020/12/05 03:33:34;;;;;;;19.75;11.82;;;;;;;;;;5093632;28;20032;-73
2020/12/05 03:36:00;;;;;;;19.85;11.13;;;;;;;;;;5093233;28;20040;-72
2020/12/05 03:38:25;;;;;;;22.42;13.25;;;;;;;;;;5093620;28;20042;-73
2020/12/05 03:40:51;;;;;;;20.45;12.27;;;;;;;;;;5093519;28;20036;-73
2020/12/05 03:43:16;;;;;;;23.05;12.57;;;;;;;;;;5093306;28;20062;-73
2020/12/05 03:45:41;;;;;;;20.27;11.13;;;;;;;;;;5093397;28;20036;-73
2020/12/05 03:48:07;;;;;;;22.92;12.43;;;;;;;;;;5093258;28;20398;-73
2020/12/05 03:50:32;;;;;;;25.60;14.35;;;;;;;;;;5091826;28;20040;-72
2020/12/05 03:52:57;;;;;;;23.42;13.38;;;;;;;;;;5094802;28;20039;-72
2020/12/05 03:55:23;;;;;;;25.75;14.63;;;;;;;;;;5097634;28;20115;-73
2020/12/05 03:57:48;;;;;;;26.05;14.60;;;;;;;;;;5097520;28;20042;-73
2020/12/05 04:00:14;;;;;;;26.70;15.32;;;;;;;;;;5097667;28;20047;-72
2020/12/05 04:02:39;;;;;;;28.75;15.05;;;;;;;;;;5097564;28;20050;-73
2020/12/05 04:05:04;;;;;;;27.48;15.35;;;;;;;;;;5078904;28;20039;-73
2020/12/05 04:07:30;;;;;;;27.45;14.30;;;;;;;;;;5097377;28;20039;-73
2020/12/05 04:09:55;;;;;;;23.48;13.93;;;;;;;;;;5097395;28;20089;-73
2020/12/05 04:12:20;;;;;;;21.35;12.82;;;;;;;;;;5097459;28;20036;-73
2020/12/05 04:14:46;;;;;;;33.67;15.63;;;;;;;;;;5097290;28;20054;-73
2020/12/05 04:17:11;;;;;;;25.17;14.85;;;;;;;;;;5097199;28;20047;-73
2020/12/05 04:19:36;;;;;;;25.00;14.77;;;;;;;;;;5097201;28;20044;-73
2020/12/05 04:22:02;;;;;;;29.90;16.02;;;;;;;;;;5096878;28;20415;-73
2020/12/05 04:24:27;;;;;;;26.13;15.32;;;;;;;;;;5097185;28;20039;-73
2020/12/05 04:26:54;;;;;;;26.90;15.07;;;;;;;;;;5097127;28;20355;-73
2020/12/05 04:29:19;;;;;;;22.50;13.05;;;;;;;;;;5096944;28;20051;-72
2020/12/05 04:31:44;;;;;;;22.20;14.00;;;;;;;;;;5097046;28;20040;-73
2020/12/05 04:34:10;;;;;;;28.65;14.43;;;;;;;;;;5096961;28;20064;-73
2020/12/05 04:36:35;;;;;;;23.50;13.75;;;;;;;;;;5096715;28;20466;-72
2020/12/05 04:39:01;;;;;;;26.15;14.38;;;;;;;;;;5096857;28;20111;-72
2020/12/05 04:41:26;;;;;;;23.40;13.57;;;;;;;;;;5096819;28;20112;-73
2020/12/05 04:43:52;;;;;;;24.83;14.00;;;;;;;;;;5096719;28;20048;-73
2020/12/05 04:46:19;;;;;;;25.42;14.77;;;;;;;;;;5096645;28;20040;-73
2020/12/05 04:48:47;;;;;;;23.80;14.48;;;;;;;;;;5078555;28;20123;-73
2020/12/05 04:51:16;;;;;;;24.73;14.80;;;;;;;;;;5096399;28;20036;-72
2020/12/05 04:53:46;;;;;;;26.92;14.65;;;;;;;;;;5096696;28;20115;-73
2020/12/05 04:56:13;;;;;;;26.42;15.30;;;;;;;;;;5095200;28;20040;-73
2020/12/05 04:58:45;;;;;;;30.45;15.85;;;;;;;;;;5096464;28;20147;-73
2020/12/05 05:01:15;;;;;;;27.77;16.27;;;;;;;;;;5096205;28;20118;-73
2020/12/05 05:03:41;;;;;;;31.00;16.30;;;;;;;;;;5096378;28;20032;-74
2020/12/05 05:06:06;;;;;;;26.98;14.88;;;;;;;;;;5095415;28;20038;-73
2020/12/05 05:08:32;;;;;;;32.13;15.40;;;;;;;;;;5096338;28;20035;-74
2020/12/05 05:11:11;;;;;;;27.70;15.80;;;;;;;;;;5096139;28;20062;-74
2020/12/05 05:13:52;;;;;;;22.95;13.77;;;;;;;;;;5096219;28;20081;-74
2020/12/05 05:16:18;;;;;;;24.63;14.52;;;;;;;;;;5096140;28;20042;-74
2020/12/05 05:18:43;;;;;;;22.85;14.57;;;;;;;;;;5096111;28;20122;-74
2020/12/05 05:21:09;;;;;;;28.67;14.52;;;;;;;;;;5095607;28;20043;-74
2020/12/05 05:23:35;;;;;;;23.50;13.60;;;;;;;;;;5096010;28;20039;-75
2020/12/05 05:26:03;;;;;;;26.55;15.38;;;;;;;;;;5095870;28;20036;-75
2020/12/05 05:28:31;;;;;;;23.88;14.43;;;;;;;;;;5095878;28;20123;-75
2020/12/05 05:31:04;;;;;;;27.10;15.75;;;;;;;;;;5095825;28;20556;-75
2020/12/05 05:33:43;;;;;;;25.60;16.15;;;;;;;;;;5095821;28;20032;-75
2020/12/05 05:36:29;;;;;;;27.42;15.35;;;;;;;;;;5095375;28;20036;-75
2020/12/05 05:39:09;;;;;;;25.50;14.82;;;;;;;;;;5095855;28;20040;-75
2020/12/05 05:41:39;;;;;;;28.27;16.63;;;;;;;;;;5095572;28;20074;-76
2020/12/05 05:44:10;;;;;;;27.92;15.25;;;;;;;;;;5095272;28;20054;-76
2020/12/05 05:46:40;;;;;;;32.83;15.93;;;;;;;;;;5095578;28;20036;-76
2020/12/05 05:49:05;;;;;;;26.05;14.43;;;;;;;;;;5093980;28;20036;-76
2020/12/05 05:51:48;;;;;;;27.02;15.50;;;;;;;;;;5095202;28;20039;-75
2020/12/05 05:54:14;;;;;;;26.83;14.75;;;;;;;;;;5095323;28;20425;-75
2020/12/05 05:57:04;;;;;;;24.25;14.80;;;;;;;;;;5095231;28;20063;-75
2020/12/05 05:59:32;;;;;;;28.52;14.55;;;;;;;;;;5091712;28;20036;-75
2020/12/05 06:01:58;;;;;;;25.70;15.45;;;;;;;;;;5094025;28;20052;-75
2020/12/05 06:04:30;;;;;;;24.80;14.40;;;;;;;;;;5095254;28;20431;-75
2020/12/05 06:06:58;;;;;;;26.45;15.27;;;;;;;;;;5094899;28;20113;-76
2020/12/05 06:09:30;;;;;;;22.77;13.68;;;;;;;;;;5095241;28;20039;-75
2020/12/05 06:11:57;;;;;;;23.77;14.65;;;;;;;;;;5094955;28;20089;-75
2020/12/05 06:14:24;;;;;;;26.23;15.52;;;;;;;;;;5095170;28;20051;-75
2020/12/05 06:16:55;;;;;;;24.23;14.23;;;;;;;;;;5094018;28;20063;-75
2020/12/05 06:19:24;;;;;;;28.85;16.02;;;;;;;;;;5094907;28;20040;-75
2020/12/05 06:21:55;;;;;;;32.80;17.73;;;;;;;;;;5094501;28;20055;-75
2020/12/05 06:24:39;;;;;;;24.42;15.20;;;;;;;;;;5095003;28;20072;-75
2020/12/05 06:27:07;;;;;;;29.67;16.10;;;;;;;;;;5094725;28;20488;-75
2020/12/05 06:29:36;;;;;;;29.05;16.77;;;;;;;;;;5094769;28;20075;-75
2020/12/05 06:32:01;;;;;;;26.50;15.43;;;;;;;;;;5094675;28;20043;-75
2020/12/05 06:34:37;;;;;;;27.00;15.00;;;;;;;;;;5094678;28;20032;-75
2020/12/05 06:37:04;;;;;;;26.40;15.00;;;;;;;;;;5094283;28;20474;-75
2020/12/05 06:39:29;;;;;;;24.90;14.93;;;;;;;;;;5094628;28;20119;-75
2020/12/05 06:41:55;;;;;;;24.30;14.43;;;;;;;;;;5094401;28;20566;-75
2020/12/05 06:44:24;;;;;;;26.98;15.85;;;;;;;;;;5093179;28;20062;-75
2020/12/05 06:46:58;;;;;;;30.08;16.17;;;;;;;;;;5094289;28;20549;-75
2020/12/05 06:49:36;;;;;;;33.00;18.67;;;;;;;;;;5094484;28;20048;-75
2020/12/05 06:52:23;;;;;;;28.65;17.63;;;;;;;;;;5094054;28;20036;-75
2020/12/05 06:54:52;;;;;;;31.23;17.17;;;;;;;;;;5093948;28;20378;-75
2020/12/05 06:57:17;;;;;;;33.17;18.00;;;;;;;;;;5094172;28;20043;-75
2020/12/05 06:59:43;;;;;;;35.08;19.00;;;;;;;;;;5093939;28;20044;-75
2020/12/05 07:02:31;;;;;;;28.15;16.40;;;;;;;;;;5093903;28;20062;-75
2020/12/05 07:05:18;;;;;;;27.33;16.02;;;;;;;;;;5092888;28;20432;-74
2020/12/05 07:07:52;;;;;;;28.95;15.98;;;;;;;;;;5093925;28;20044;-74
2020/12/05 07:10:20;;;;;;;28.42;15.73;;;;;;;;;;5094021;28;20035;-75
2020/12/05 07:12:46;;;;;;;26.17;16.63;;;;;;;;;;5094053;28;20454;-75
2020/12/05 07:15:24;;;;;;;28.85;15.52;;;;;;;;;;5093742;28;20066;-75
2020/12/05 07:17:50;;;;;;;27.77;16.15;;;;;;;;;;5092487;28;20062;-75
2020/12/05 07:20:15;;;;;;;24.05;15.35;;;;;;;;;;5093793;28;20485;-75
2020/12/05 07:22:42;;;;;;;25.50;16.13;;;;;;;;;;5093557;28;20383;-75
2020/12/05 07:25:07;;;;;;;28.50;15.63;;;;;;;;;;5093713;28;20097;-75
2020/12/05 07:27:33;;;;;;;28.35;16.02;;;;;;;;;;5093483;28;20036;-75
2020/12/05 07:29:58;;;;;;;26.90;15.02;;;;;;;;;;5093576;28;20043;-75
2020/12/05 07:32:31;;;;;;;24.75;15.07;;;;;;;;;;5093758;28;20081;-74
2020/12/05 07:34:57;;;;;;;26.30;16.30;;;;;;;;;;5093545;28;20032;-75
2020/12/05 07:37:25;;;;;;;28.92;16.70;;;;;;;;;;5093355;28;20088;-73
2020/12/05 07:39:51;;;;;;;28.63;17.17;;;;;;;;;;5094058;28;20040;-76
2020/12/05 07:42:16;;;;;;;23.30;15.07;;;;;;;;;;5094119;28;20036;-76
2020/12/05 07:44:43;;;;;;;27.13;15.77;;;;;;;;;;5093273;28;20457;-75
2020/12/05 07:47:18;;;;;;;30.48;18.77;;;;;;;;;;5092650;28;20115;-75
2020/12/05 07:49:54;;;;;;;35.20;19.40;;;;;;;;;;5093529;28;20114;-75
2020/12/05 07:52:22;;;;;;;29.05;18.17;;;;;;;;;;5093019;28;20596;-75
2020/12/05 07:54:58;;;;;;;28.55;17.00;;;;;;;;;;5093334;28;20492;-76
2020/12/05 07:57:28;;;;;;;28.33;17.15;;;;;;;;;;5093438;28;20028;-74
2020/12/05 08:00:11;;;;;;;26.25;16.00;;;;;;;;;;5093279;28;20044;-74
2020/12/05 08:03:18;;;;;;;29.55;16.63;;;;;;;;;;5093341;28;20036;-75
2020/12/05 08:06:19;;;;;;;23.98;14.52;;;;;;;;;;5070243;28;20040;-74
2020/12/05 08:08:50;;;;;;;27.73;15.48;;;;;;;;;;5093323;28;20046;-74
2020/12/05 08:11:16;;;;;;;31.33;18.33;;;;;;;;;;5092878;28;20097;-74
2020/12/05 08:13:41;;;;;;;35.13;20.08;;;;;;;;;;5094155;28;20028;-78
2020/12/05 08:16:08;;;;;;;37.65;21.85;;;;;;;;;;5092161;28;20036;-75
2020/12/05 08:18:36;;;;;;;41.67;22.42;;;;;;;;;;5093302;28;20040;-75
2020/12/05 08:21:03;;;;;;;39.40;23.27;;;;;;;;;;5091717;28;20474;-75
2020/12/05 08:23:33;;;;;;;35.63;21.35;;;;;;;;;;5093354;28;20123;-79
2020/12/05 08:26:01;;;;;;;38.50;21.15;;;;;;;;;;5093138;28;20108;-75
2020/12/05 08:28:30;;;;;;;32.53;19.67;;;;;;;;;;5093121;28;20036;-74
2020/12/05 08:30:55;;;;;;;32.05;19.60;;;;;;;;;;5092896;28;20763;-75
2020/12/05 08:33:21;;;;;;;32.95;18.80;;;;;;;;;;5093102;28;20111;-75
2020/12/05 08:35:46;;;;;;;31.50;19.40;;;;;;;;;;5092743;28;20054;-74
2020/12/05 08:38:14;;;;;;;30.48;18.95;;;;;;;;;;5092998;28;20035;-75
2020/12/05 08:40:41;;;;;;;32.75;18.67;;;;;;;;;;5095330;28;20115;-75
2020/12/05 08:43:07;;;;;;;33.22;19.42;;;;;;;;;;5096802;28;20085;-75
2020/12/05 08:45:38;;;;;;;35.20;21.23;;;;;;;;;;5096842;28;20381;-76
2020/12/05 08:48:14;;;;;;;36.13;20.17;;;;;;;;;;5096770;28;20042;-75
2020/12/05 08:50:40;;;;;;;30.02;18.17;;;;;;;;;;5096410;28;20111;-74
2020/12/05 08:53:05;;;;;;;30.35;18.65;;;;;;;;;;5096476;28;20051;-75
2020/12/05 08:55:31;;;;;;;32.78;20.48;;;;;;;;;;5096469;28;20118;-77
2020/12/05 08:58:02;;;;;;;34.60;18.60;;;;;;;;;;5096621;28;20467;-78
2020/12/05 09:00:31;;;;;;;33.10;17.33;;;;;;;;;;5096556;28;20036;-75
2020/12/05 09:02:56;;;;;;;32.92;18.90;;;;;;;;;;5096726;28;20378;-75
2020/12/05 09:05:22;;;;;;;33.17;19.80;;;;;;;;;;5094945;28;20043;-75
2020/12/05 09:07:54;;;;;;;27.67;17.65;;;;;;;;;;5096213;28;20111;-75
2020/12/05 09:10:20;;;;;;;30.63;18.90;;;;;;;;;;5096209;28;20043;-75
2020/12/05 09:12:46;;;;;;;41.85;20.20;;;;;;;;;;5096225;28;20126;-75
2020/12/05 09:15:12;;;;;;;32.72;17.17;;;;;;;;;;5096225;28;20036;-76
2020/12/05 09:17:37;;;;;;;52.97;19.75;;;;;;;;;;5096421;28;20032;-74
2020/12/05 09:20:18;;;;;;;43.58;17.95;;;;;;;;;;5095944;28;20458;-74
2020/12/05 09:22:57;;;;;;;42.25;18.98;;;;;;;;;;5095373;28;20040;-74
2020/12/05 09:25:31;;;;;;;46.58;19.70;;;;;;;;;;5094585;28;20036;-73
2020/12/05 09:27:58;;;;;;;45.65;18.90;;;;;;;;;;5095887;28;20036;-73
2020/12/05 09:30:24;;;;;;;32.00;17.77;;;;;;;;;;5095665;28;20027;-74
2020/12/05 09:32:50;;;;;;;36.75;21.77;;;;;;;;;;5095901;28;20032;-73
2020/12/05 09:35:18;;;;;;;35.88;22.13;;;;;;;;;;5094276;28;20039;-74
2020/12/05 09:37:44;;;;;;;30.58;19.27;;;;;;;;;;5095348;28;20032;-74
2020/12/05 09:40:13;;;;;;;28.10;17.73;;;;;;;;;;5095738;28;20024;-74
2020/12/05 09:42:40;;;;;;;28.42;16.17;;;;;;;;;;5095559;28;20477;-74
2020/12/05 09:45:07;;;;;;;45.13;18.17;;;;;;;;;;5096237;28;20032;-75
2020/12/05 09:47:32;;;;;;;28.25;16.63;;;;;;;;;;5095467;28;20149;-74
2020/12/05 09:49:58;;;;;;;24.58;14.32;;;;;;;;;;5091247;28;20040;-75
2020/12/05 09:52:24;;;;;;;24.25;13.73;;;;;;;;;;5082655;28;20385;-74
2020/12/05 09:54:51;;;;;;;22.40;13.23;;;;;;;;;;5085579;28;20038;-74
2020/12/05 09:57:17;;;;;;;22.55;14.30;;;;;;;;;;5084262;28;20127;-73
2020/12/05 09:59:43;;;;;;;23.30;13.68;;;;;;;;;;5084372;28;20444;-75
2020/12/05 10:02:09;;;;;;;23.58;13.30;;;;;;;;;;5075291;28;20059;-74
2020/12/05 10:04:34;;;;;;;24.75;14.40;;;;;;;;;;5073802;28;20075;-76
2020/12/05 10:07:00;;;;;;;27.90;14.95;;;;;;;;;;5074859;28;20393;-74
2020/12/05 10:09:25;;;;;;;34.17;17.70;;;;;;;;;;5074315;28;20044;-73
2020/12/05 10:11:51;;;;;;;33.90;20.33;;;;;;;;;;5074578;28;20040;-74
2020/12/05 10:14:16;;;;;;;34.83;21.05;;;;;;;;;;5074698;28;20111;-74
2020/12/05 10:16:42;;;;;;;35.10;21.17;;;;;;;;;;5056874;28;20383;-74
2020/12/05 10:19:07;;;;;;;32.97;20.73;;;;;;;;;;5074341;28;20028;-73
2020/12/05 10:21:32;;;;;;;34.10;21.73;;;;;;;;;;5073996;28;20036;-75
2020/12/05 10:23:58;;;;;;;30.88;18.63;;;;;;;;;;5074583;28;20107;-74
2020/12/05 10:26:23;;;;;;;30.65;18.80;;;;;;;;;;5075219;28;20062;-75
2020/12/05 10:28:49;;;;;;;28.20;18.48;;;;;;;;;;5074826;28;20039;-75
2020/12/05 10:31:14;;;;;;;26.77;18.05;;;;;;;;;;5074327;28;20028;-74
2020/12/05 10:33:40;;;;;;;45.60;27.63;;;;;;;;;;5074417;28;20051;-74
2020/12/05 10:36:05;;;;;;;41.65;24.75;;;;;;;;;;5074022;28;20059;-73
2020/12/05 10:38:30;;;;;;;33.17;19.65;;;;;;;;;;5074547;28;20059;-76
2020/12/05 10:40:56;;;;;;;28.70;17.42;;;;;;;;;;5074328;28;20059;-75
2020/12/05 10:43:22;;;;;;;38.80;20.73;;;;;;;;;;5074149;28;20044;-74
2020/12/05 10:45:47;;;;;;;36.45;20.05;;;;;;;;;;5073947;28;20060;-75
2020/12/05 10:48:13;;;;;;;29.33;16.77;;;;;;;;;;5073924;28;20046;-75
2020/12/05 10:50:38;;;;;;;26.75;15.50;;;;;;;;;;5074029;28;20127;-75
2020/12/05 10:53:03;;;;;;;23.58;15.32;;;;;;;;;;5073667;28;20024;-74
2020/12/05 10:55:29;;;;;;;26.08;15.05;;;;;;;;;;5073832;28;20085;-75
2020/12/05 10:57:56;;;;;;;23.15;15.25;;;;;;;;;;5073816;28;20044;-74
2020/12/05 11:00:21;;;;;;;20.25;13.25;;;;;;;;;;5086068;28;20098;-73
2020/12/05 11:02:47;;;;;;;25.00;15.05;;;;;;;;;;5093437;28;20415;-70
2020/12/05 11:05:12;;;;;;;25.35;15.98;;;;;;;;;;5093987;28;20044;-71
2020/12/05 11:07:38;;;;;;;23.10;14.57;;;;;;;;;;5093760;28;20039;-71
2020/12/05 11:10:03;;;;;;;26.90;16.55;;;;;;;;;;5094135;28;20032;-71
2020/12/05 11:12:29;;;;;;;24.77;16.92;;;;;;;;;;5094101;28;20453;-71
2020/12/05 11:14:56;;;;;;;35.15;20.45;;;;;;;;;;5093920;28;20493;-71
2020/12/05 11:17:21;;;;;;;26.63;17.73;;;;;;;;;;5093652;28;20139;-71
2020/12/05 11:19:47;;;;;;;32.88;19.92;;;;;;;;;;5093974;28;20024;-71
2020/12/05 11:22:12;;;;;;;33.67;20.35;;;;;;;;;;5092833;28;20123;-71
2020/12/05 11:24:37;;;;;;;38.53;19.73;;;;;;;;;;5093561;28;20396;-70
2020/12/05 11:27:03;;;;;;;30.60;18.30;;;;;;;;;;5093712;28;20081;-71
2020/12/05 11:29:28;;;;;;;28.45;17.58;;;;;;;;;;5093706;28;20390;-71
2020/12/05 11:31:54;;;;;;;23.08;15.00;;;;;;;;;;5093701;28;20140;-73
2020/12/05 11:34:19;;;;;;;19.65;13.77;;;;;;;;;;5093532;28;20111;-72
2020/12/05 11:36:45;;;;;;;20.77;13.52;;;;;;;;;;5093504;28;20028;-76
2020/12/05 11:39:11;;;;;;;18.50;11.32;;;;;;;;;;5093401;28;20040;-74
2020/12/05 11:41:36;;;;;;;19.02;13.48;;;;;;;;;;5075152;28;20454;-72
2020/12/05 11:44:04;;;;;;;15.25;11.25;;;;;;;;;;5073407;28;20048;-74
2020/12/05 11:46:30;;;;;;;23.48;11.50;;;;;;;;;;5073307;28;20040;-74
2020/12/05 11:48:56;;;;;;;18.48;12.73;;;;;;;;;;5073411;28;20072;-74
2020/12/05 11:51:28;;;;;;;18.08;10.98;;;;;;;;;;5072984;28;20386;-73
2020/12/05 11:53:54;;;;;;;17.13;12.35;;;;;;;;;;5073277;28;20033;-73
2020/12/05 11:56:21;;;;;;;23.88;13.00;;;;;;;;;;5073317;28;20040;-74
2020/12/05 11:58:46;;;;;;;38.97;18.73;;;;;;;;;;5073190;28;20150;-73
2020/12/05 12:01:11;;;;;;;27.50;15.70;;;;;;;;;;5091327;28;20484;-75
2020/12/05 12:03:37;;;;;;;15.88;11.88;;;;;;;;;;5093270;28;20425;-74
2020/12/05 12:06:03;;;;;;;16.65;11.55;;;;;;;;;;5092092;28;20054;-74
2020/12/05 12:08:29;;;;;;;13.90;10.95;;;;;;;;;;5093169;28;20036;-73
2020/12/05 12:10:54;;;;;;;17.42;11.57;;;;;;;;;;5093366;28;20036;-75
2020/12/05 12:13:20;;;;;;;19.85;12.10;;;;;;;;;;5093253;28;20028;-74
2020/12/05 12:15:45;;;;;;;17.58;11.30;;;;;;;;;;5095724;28;20471;-73
2020/12/05 12:18:11;;;;;;;15.75;11.35;;;;;;;;;;5097207;28;20474;-73
2020/12/05 12:20:36;;;;;;;14.15;10.63;;;;;;;;;;5097112;28;20401;-73
2020/12/05 12:23:01;;;;;;;15.80;9.77;;;;;;;;;;5095194;28;20085;-74
2020/12/05 12:25:27;;;;;;;17.08;11.25;;;;;;;;;;5097121;28;20036;-75
2020/12/05 12:27:52;;;;;;;16.08;11.10;;;;;;;;;;5096010;28;20028;-75
2020/12/05 12:30:18;;;;;;;16.08;11.48;;;;;;;;;;5096360;28;20086;-76
2020/12/05 12:32:43;;;;;;;19.65;12.20;;;;;;;;;;5097026;28;20035;-76
2020/12/05 12:35:09;;;;;;;19.70;12.23;;;;;;;;;;5096923;28;20385;-76
2020/12/05 12:37:34;;;;;;;22.70;12.88;;;;;;;;;;5096929;28;20039;-77
2020/12/05 12:40:00;;;;;;;21.55;13.73;;;;;;;;;;5095536;28;20032;-75
2020/12/05 12:42:27;;;;;;;20.80;13.48;;;;;;;;;;5096578;28;20044;-77
2020/12/05 12:44:53;;;;;;;21.45;13.32;;;;;;;;;;5096726;28;20046;-76
2020/12/05 12:47:38;;;;;;;16.23;11.23;;;;;;;;;;5096813;28;20039;-76
2020/12/05 12:50:05;;;;;;;17.25;10.63;;;;;;;;;;5096718;28;20043;-76
2020/12/05 12:52:31;;;;;;;15.90;10.98;;;;;;;;;;5098028;28;20462;-76
2020/12/05 12:54:56;;;;;;;119.65;63.75;;;;;;;;;;5096432;28;20060;-74
2020/12/05 12:57:26;;;;;;;27.55;16.75;;;;;;;;;;5096488;28;20036;-75
2020/12/05 12:59:51;;;;;;;15.70;11.20;;;;;;;;;;5096482;28;20131;-74
2020/12/05 13:02:17;;;;;;;14.63;11.32;;;;;;;;;;5096381;28;20117;-75
2020/12/05 13:04:42;;;;;;;18.02;11.77;;;;;;;;;;5096394;28;20040;-75
2020/12/05 13:07:07;;;;;;;16.90;11.57;;;;;;;;;;5095836;28;20036;-75
2020/12/05 13:09:33;;;;;;;16.52;11.40;;;;;;;;;;5095121;28;20036;-75
2020/12/05 13:11:58;;;;;;;15.55;11.32;;;;;;;;;;5096215;28;20036;-74
2020/12/05 13:14:23;;;;;;;17.92;12.23;;;;;;;;;;5096233;28;20394;-75
2020/12/05 13:16:49;;;;;;;18.20;12.98;;;;;;;;;;5096231;28;20390;-75
2020/12/05 13:19:14;;;;;;;31.08;13.38;;;;;;;;;;5096215;28;20413;-75
2020/12/05 13:21:40;;;;;;;19.08;13.45;;;;;;;;;;5095987;28;20117;-74
2020/12/05 13:24:05;;;;;;;19.30;12.85;;;;;;;;;;5095911;28;20032;-75
2020/12/05 13:26:34;;;;;;;23.65;15.45;;;;;;;;;;5094139;28;20050;-75
2020/12/05 13:28:59;;;;;;;23.55;15.60;;;;;;;;;;5095822;28;20040;-75
2020/12/05 13:31:32;;;;;;;23.35;15.23;;;;;;;;;;5095850;28;20036;-74
2020/12/05 13:34:01;;;;;;;27.40;16.17;;;;;;;;;;5095851;28;20467;-74
2020/12/05 13:36:27;;;;;;;22.17;14.65;;;;;;;;;;5095913;28;20039;-75
2020/12/05 13:38:52;;;;;;;23.35;15.02;;;;;;;;;;5094307;28;20393;-74
2020/12/05 13:41:18;;;;;;;25.80;16.05;;;;;;;;;;5094358;28;20485;-75
2020/12/05 13:43:43;;;;;;;22.25;13.43;;;;;;;;;;5095716;28;20093;-75
2020/12/05 13:46:08;;;;;;;20.02;12.68;;;;;;;;;;5094350;28;20027;-74
2020/12/05 13:48:34;;;;;;;20.67;13.63;;;;;;;;;;5095654;28;20467;-75
2020/12/05 13:50:59;;;;;;;19.90;13.43;;;;;;;;;;5095503;28;20114;-75
2020/12/05 13:53:24;;;;;;;18.02;12.60;;;;;;;;;;5095248;28;20036;-75
2020/12/05 13:55:50;;;;;;;18.98;12.52;;;;;;;;;;5095254;28;20055;-75
2020/12/05 13:58:15;;;;;;;17.73;11.77;;;;;;;;;;5095263;28;20048;-75
2020/12/05 14:00:40;;;;;;;18.05;11.90;;;;;;;;;;5095144;28;20039;-75
2020/12/05 14:03:06;;;;;;;17.90;12.93;;;;;;;;;;5095187;28;20097;-75
2020/12/05 14:05:31;;;;;;;17.23;11.98;;;;;;;;;;5095263;28;20035;-75
2020/12/05 14:07:56;;;;;;;20.40;13.15;;;;;;;;;;5093745;28;20048;-75
2020/12/05 14:10:22;;;;;;;17.13;11.95;;;;;;;;;;5095151;28;20089;-75
2020/12/05 14:12:47;;;;;;;18.70;12.07;;;;;;;;;;5095086;28;20097;-75
2020/12/05 14:15:12;;;;;;;18.52;13.20;;;;;;;;;;5094866;28;20089;-74
2020/12/05 14:17:38;;;;;;;16.55;12.45;;;;;;;;;;5095023;28;20039;-74
2020/12/05 14:20:04;;;;;;;19.25;13.20;;;;;;;;;;5094972;28;20478;-75